Terminal Aerodrome Forecast
Issued by NWS

Home | Current Version | Previous Version | Text Only | Print | Product List | Glossary On
Versions: 1 2 3 4 5 6 7 8 9 10 11 12 13 14 15 16 17 18
000
FTUS46 KSEW 241123
TAFCLM
TAF
KCLM 241123Z 2412/2512 26006KT P6SM FEW040 BKN070 OVC120
     FM241800 VRB04KT P6SM BKN040 BKN050 OVC070=

USA.gov is the U.S. government's official web portal to all federal, state and local government web resources and services.